createdAt,value
2022-08-18T00:00:32.076Z,93585.94
2022-08-18T00:01:29.468Z,93591.47
2022-08-18T00:02:30.567Z,93590.38
2022-08-18T00:03:56.001Z,93586.53
2022-08-18T00:04:49.125Z,93592.88
2022-08-18T00:05:46.635Z,93594.91
2022-08-18T00:06:43.522Z,93592.03
2022-08-18T00:07:40.316Z,93601.78
2022-08-18T00:08:44.291Z,93591.38
2022-08-18T00:09:42.058Z,93579.78
2022-08-18T00:10:42.360Z,93569.28
2022-08-18T00:11:42.675Z,93589.50
2022-08-18T00:12:42.007Z,93597.59
2022-08-18T00:13:38.635Z,93595.91
2022-08-18T00:14:35.376Z,93590.31
2022-08-18T00:15:32.022Z,93591.81
2022-08-18T00:16:38.500Z,93591.09
2022-08-18T00:17:36.391Z,93573.28
2022-08-18T00:18:33.028Z,93598.25
2022-08-18T00:19:46.122Z,93601.25
2022-08-18T00:20:45.388Z,93597.47
2022-08-18T00:21:42.060Z,93598.56
2022-08-18T00:22:40.046Z,93601.31
2022-08-18T00:23:38.728Z,93600.31
2022-08-18T00:24:35.498Z,93603.75
2022-08-18T00:25:33.830Z,93605.38
2022-08-18T00:26:34.798Z,93603.28
2022-08-18T00:27:33.475Z,93602.28
2022-08-18T00:28:30.733Z,93604.47
2022-08-18T00:29:27.507Z,93608.84
2022-08-18T00:30:24.485Z,93598.13
2022-08-18T00:31:21.197Z,93593.56
2022-08-18T00:32:22.422Z,93603.00
2022-08-18T00:33:19.086Z,93602.91
2022-08-18T00:34:16.044Z,93600.69
2022-08-18T00:35:21.023Z,93600.47
2022-08-18T00:36:17.838Z,93601.59
2022-08-18T00:37:14.696Z,93593.38
2022-08-18T00:38:24.786Z,93590.63
2022-08-18T00:39:22.311Z,93596.47
2022-08-18T00:40:22.751Z,93607.50
2022-08-18T00:41:20.728Z,93603.38
2022-08-18T00:42:29.105Z,93596.75
2022-08-18T00:43:42.272Z,93598.75
2022-08-18T00:44:38.922Z,93597.00
2022-08-18T00:45:38.078Z,93593.63
2022-08-18T00:46:37.191Z,93596.22
2022-08-18T00:47:42.268Z,93593.97
2022-08-18T00:48:39.873Z,93580.38
2022-08-18T00:49:51.396Z,93599.44
2022-08-18T00:51:24.232Z,93606.53
2022-08-18T00:52:23.981Z,93609.34
2022-08-18T00:53:37.429Z,93604.13
2022-08-18T00:54:36.066Z,93609.53
2022-08-18T00:55:34.215Z,93603.13
2022-08-18T00:56:38.657Z,93611.78
2022-08-18T00:57:36.070Z,93598.44
2022-08-18T00:58:39.983Z,93605.28
2022-08-18T00:59:55.524Z,93610.03
2022-08-18T01:00:52.416Z,93606.25
2022-08-18T01:01:51.669Z,93610.38
2022-08-18T01:02:54.326Z,93617.09
2022-08-18T01:03:58.621Z,93611.94
2022-08-18T01:05:01.322Z,93613.38
2022-08-18T01:06:06.912Z,93606.09
2022-08-18T01:07:44.415Z,93611.00
2022-08-18T01:08:41.981Z,93600.19
2022-08-18T01:09:39.064Z,93606.28
2022-08-18T01:10:36.770Z,93607.06
2022-08-18T01:11:34.142Z,93607.78
2022-08-18T01:12:45.117Z,93614.44
2022-08-18T01:13:43.793Z,93615.28
2022-08-18T01:14:40.836Z,93619.47
2022-08-18T01:15:38.537Z,93609.44
2022-08-18T01:16:57.432Z,93612.75
2022-08-18T01:18:14.396Z,93617.50
2022-08-18T01:19:29.625Z,93613.25
2022-08-18T01:20:54.289Z,93608.94
2022-08-18T01:21:55.548Z,93593.72
2022-08-18T01:23:04.611Z,93612.47
2022-08-18T01:24:04.887Z,93602.16
2022-08-18T01:25:21.181Z,93615.09
2022-08-18T01:26:22.841Z,93613.13
2022-08-18T01:27:19.818Z,93614.84
2022-08-18T01:28:19.482Z,93584.09
2022-08-18T01:29:18.655Z,93616.56
2022-08-18T01:30:18.149Z,93614.03
2022-08-18T01:31:37.930Z,93610.28
2022-08-18T01:32:34.612Z,93602.72
2022-08-18T01:33:36.574Z,93604.38
2022-08-18T01:34:34.674Z,93599.44
2022-08-18T01:35:35.051Z,93604.63
2022-08-18T01:36:40.842Z,93605.06
2022-08-18T01:37:38.316Z,93598.56
2022-08-18T01:38:34.931Z,93607.56
2022-08-18T01:41:17.682Z,93605.66
2022-08-18T01:41:21.303Z,93602.38
2022-08-18T01:42:06.388Z,93606.53
2022-08-18T01:43:04.473Z,93569.25
2022-08-18T01:44:02.129Z,93607.34
2022-08-18T01:44:58.889Z,93601.88
2022-08-18T01:45:57.615Z,93577.28
2022-08-18T01:46:54.262Z,93600.75
2022-08-18T01:47:50.993Z,93601.38
2022-08-18T01:48:48.801Z,93598.91
2022-08-18T01:49:45.781Z,93598.06
2022-08-18T01:50:44.283Z,93587.88
2022-08-18T01:51:42.712Z,93594.19
2022-08-18T01:52:40.277Z,93598.25
2022-08-18T01:53:37.446Z,93593.88
2022-08-18T01:54:34.111Z,93599.13
2022-08-18T01:55:37.473Z,93594.75
2022-08-18T01:56:34.071Z,93599.56
2022-08-18T01:57:30.786Z,93576.25
2022-08-18T01:58:31.820Z,93592.03
2022-08-18T01:59:28.620Z,93592.88
2022-08-18T02:00:25.947Z,93588.00
2022-08-18T02:01:24.161Z,93597.16
2022-08-18T02:02:33.976Z,93582.81
2022-08-18T02:03:35.549Z,93592.84
2022-08-18T02:04:36.191Z,93597.22
2022-08-18T02:05:38.307Z,93596.59
2022-08-18T02:06:35.019Z,93568.88
2022-08-18T02:07:35.976Z,93558.00
2022-08-18T02:08:33.254Z,93592.66
2022-08-18T02:09:30.177Z,93591.94
2022-08-18T02:10:27.632Z,93588.06
2022-08-18T02:11:24.422Z,93582.19
2022-08-18T02:12:21.245Z,93593.56
2022-08-18T02:13:18.411Z,93598.56
2022-08-18T02:14:15.138Z,93600.31
2022-08-18T02:15:12.516Z,93603.16
2022-08-18T02:16:09.452Z,93602.13
2022-08-18T02:17:08.371Z,93561.53
2022-08-18T02:18:05.299Z,93592.50
2022-08-18T02:19:02.063Z,93619.75
2022-08-18T02:19:58.733Z,93610.22
2022-08-18T02:20:58.497Z,93612.19
2022-08-18T02:21:55.155Z,93619.28
2022-08-18T02:22:52.156Z,93612.03
2022-08-18T02:23:53.635Z,93600.34
2022-08-18T02:24:50.749Z,93604.97
2022-08-18T02:25:47.437Z,93607.09
2022-08-18T02:26:44.699Z,93610.22
2022-08-18T02:27:41.563Z,93603.75
2022-08-18T02:28:38.484Z,93612.69
2022-08-18T02:29:36.941Z,93619.59
2022-08-18T02:30:37.581Z,93621.47
2022-08-18T02:31:34.271Z,93608.34
2022-08-18T02:32:32.533Z,93578.59
2022-08-18T02:33:29.255Z,93618.53
2022-08-18T02:34:26.073Z,93619.63
2022-08-18T02:35:22.706Z,93606.06
2022-08-18T02:36:20.857Z,93573.19
2022-08-18T02:37:17.574Z,93612.28
2022-08-18T02:38:14.193Z,93603.53
2022-08-18T02:39:14.953Z,93615.44
2022-08-18T02:40:15.440Z,93617.91
2022-08-18T02:41:14.651Z,93612.28
2022-08-18T02:42:11.735Z,93617.69
2022-08-18T02:43:09.589Z,93616.44
2022-08-18T02:44:08.577Z,93614.56
2022-08-18T02:45:06.290Z,93614.16
2022-08-18T02:46:06.594Z,93619.53
2022-08-18T02:47:03.497Z,93611.03
2022-08-18T02:48:00.101Z,93584.81
2022-08-18T02:48:56.992Z,93609.16
2022-08-18T02:49:53.802Z,93615.78
2022-08-18T02:50:50.819Z,93614.56
2022-08-18T02:51:47.794Z,93616.66
2022-08-18T02:52:44.529Z,93615.81
2022-08-18T02:53:44.899Z,93595.84
2022-08-18T02:54:41.586Z,93609.16
2022-08-18T02:55:38.232Z,93602.50
2022-08-18T02:56:41.917Z,93610.81
2022-08-18T02:57:46.773Z,93617.47
2022-08-18T02:58:43.454Z,93612.50
2022-08-18T02:59:41.267Z,93615.81
2022-08-18T03:00:38.416Z,93609.34
2022-08-18T03:01:40.928Z,93607.91
2022-08-18T03:02:38.512Z,93618.94
2022-08-18T03:03:36.225Z,93602.47
2022-08-18T03:04:33.239Z,93610.41
2022-08-18T03:05:30.461Z,93608.34
2022-08-18T03:06:28.743Z,93615.00
2022-08-18T03:07:25.532Z,93617.09
2022-08-18T03:08:22.207Z,93606.22
2022-08-18T03:09:19.167Z,93596.91
2022-08-18T03:10:32.743Z,93614.19
2022-08-18T03:11:30.749Z,93619.13
2022-08-18T03:12:27.515Z,93611.34
2022-08-18T03:13:24.492Z,93614.66
2022-08-18T03:14:21.924Z,93614.56
2022-08-18T03:15:18.667Z,93620.22
2022-08-18T03:16:17.091Z,93622.31
2022-08-18T03:17:15.097Z,93618.31
2022-08-18T03:18:12.465Z,93622.28
2022-08-18T03:19:09.244Z,93620.63
2022-08-18T03:20:06.713Z,93591.69
2022-08-18T03:21:11.269Z,93589.41
2022-08-18T03:22:27.413Z,93632.06
2022-08-18T03:23:29.526Z,93600.84
2022-08-18T03:24:28.691Z,93627.25
2022-08-18T03:25:25.365Z,93607.50
2022-08-18T03:26:23.720Z,93640.13
2022-08-18T03:27:20.364Z,93641.38
2022-08-18T03:28:17.429Z,93634.72
2022-08-18T03:29:14.647Z,93623.25
2022-08-18T03:30:11.672Z,93632.00
2022-08-18T03:31:10.574Z,93639.06
2022-08-18T03:32:07.815Z,93639.09
2022-08-18T03:33:04.996Z,93647.59
2022-08-18T03:34:01.850Z,93640.34
2022-08-18T03:34:59.787Z,93636.78
2022-08-18T03:35:56.840Z,93646.38
2022-08-18T03:36:53.736Z,93616.56
2022-08-18T03:37:50.603Z,93637.19
2022-08-18T03:38:50.937Z,93642.03
2022-08-18T03:39:52.617Z,93642.44
2022-08-18T03:40:53.184Z,93629.97
2022-08-18T03:41:58.868Z,93616.44
2022-08-18T03:42:57.107Z,93637.88
2022-08-18T03:43:53.888Z,93642.94
2022-08-18T03:44:50.684Z,93629.81
2022-08-18T03:45:47.592Z,93629.97
2022-08-18T03:46:45.484Z,93632.47
2022-08-18T03:47:42.148Z,93622.72
2022-08-18T03:48:41.895Z,93624.59
2022-08-18T03:49:38.744Z,93636.66
2022-08-18T03:50:35.447Z,93627.91
2022-08-18T03:51:33.222Z,93626.63
2022-08-18T03:52:29.974Z,93611.97
2022-08-18T03:53:26.656Z,93626.09
2022-08-18T03:54:23.485Z,93591.16
2022-08-18T03:55:20.190Z,93628.28
2022-08-18T03:56:20.962Z,93629.97
2022-08-18T03:57:17.649Z,93632.91
2022-08-18T03:58:15.198Z,93632.94
2022-08-18T03:59:16.989Z,93629.59
2022-08-18T04:00:14.301Z,93636.63
2022-08-18T04:01:11.384Z,93635.56
2022-08-18T04:02:08.224Z,93633.28
2022-08-18T04:03:04.992Z,93621.66
2022-08-18T04:04:06.794Z,93607.09
2022-08-18T04:05:05.566Z,93629.78
2022-08-18T04:06:02.437Z,93619.56
2022-08-18T04:07:06.756Z,93638.75
2022-08-18T04:08:05.482Z,93639.38
2022-08-18T04:09:05.476Z,93642.06
2022-08-18T04:10:02.198Z,93635.00
2022-08-18T04:10:58.854Z,93637.94
2022-08-18T04:11:57.174Z,93644.97
2022-08-18T04:12:54.048Z,93629.19
2022-08-18T04:13:51.071Z,93656.63
2022-08-18T04:14:50.271Z,93653.53
2022-08-18T04:15:47.020Z,93649.13
2022-08-18T04:16:44.035Z,93651.03
2022-08-18T04:18:03.347Z,93649.34
2022-08-18T04:19:01.905Z,93645.19
2022-08-18T04:19:58.613Z,93647.88
2022-08-18T04:20:59.567Z,93635.19
2022-08-18T04:21:58.092Z,93644.31
2022-08-18T04:22:55.666Z,93648.06
2022-08-18T04:23:52.334Z,93647.19
2022-08-18T04:24:50.345Z,93650.31
2022-08-18T04:25:56.870Z,93651.13
2022-08-18T04:26:53.584Z,93650.91
2022-08-18T04:27:50.379Z,93650.09
2022-08-18T04:28:47.201Z,93632.81
2022-08-18T04:29:43.868Z,93653.63
2022-08-18T04:30:40.495Z,93656.97
2022-08-18T04:31:37.748Z,93656.13
2022-08-18T04:32:34.422Z,93662.34
2022-08-18T04:33:31.135Z,93662.31
2022-08-18T04:34:27.809Z,93665.03
2022-08-18T04:35:24.449Z,93662.72
2022-08-18T04:36:21.195Z,93662.09
2022-08-18T04:37:18.582Z,93665.44
2022-08-18T04:38:15.221Z,93661.13
2022-08-18T04:39:13.532Z,93658.63
2022-08-18T04:40:12.837Z,93666.31
2022-08-18T04:41:12.717Z,93664.03
2022-08-18T04:42:09.461Z,93638.41
2022-08-18T04:43:06.093Z,93671.97
2022-08-18T04:44:05.456Z,93670.94
2022-08-18T04:45:02.150Z,93669.03
2022-08-18T04:46:01.928Z,93663.66
2022-08-18T04:47:00.504Z,93678.22
2022-08-18T04:47:58.219Z,93672.13
2022-08-18T04:48:59.326Z,93640.47
2022-08-18T04:49:56.150Z,93663.97
2022-08-18T04:50:52.746Z,93667.25
2022-08-18T04:52:36.565Z,93668.75
2022-08-18T04:53:45.837Z,93646.31
2022-08-18T04:54:43.743Z,93670.81
2022-08-18T04:55:47.042Z,93649.22
2022-08-18T04:56:43.726Z,93673.97
2022-08-18T04:57:42.655Z,93670.75
2022-08-18T04:58:39.329Z,93651.63
2022-08-18T04:59:37.833Z,93666.88
2022-08-18T05:00:34.534Z,93665.22
2022-08-18T05:01:35.403Z,93669.31
2022-08-18T05:02:33.161Z,93665.91
2022-08-18T05:03:29.990Z,93664.97
2022-08-18T05:04:28.864Z,93662.72
2022-08-18T05:05:27.234Z,93669.63
2022-08-18T05:06:26.111Z,93669.19
2022-08-18T05:07:23.201Z,93666.56
2022-08-18T05:08:20.135Z,93635.75
2022-08-18T05:09:23.019Z,93672.72
2022-08-18T05:10:20.099Z,93672.50
2022-08-18T05:11:16.750Z,93662.88
2022-08-18T05:12:15.623Z,93666.06
2022-08-18T05:13:16.595Z,93663.91
2022-08-18T05:14:13.263Z,93667.19
2022-08-18T05:15:10.376Z,93665.28
2022-08-18T05:16:11.632Z,93665.97
2022-08-18T05:17:11.484Z,93677.78
2022-08-18T05:18:10.501Z,93673.03
2022-08-18T05:19:11.776Z,93673.38
2022-08-18T05:20:09.336Z,93672.03
2022-08-18T05:21:16.436Z,93670.06
2022-08-18T05:22:19.571Z,93673.50
2022-08-18T05:23:25.108Z,93660.91
2022-08-18T05:24:23.828Z,93654.09
2022-08-18T05:25:20.634Z,93678.66
2022-08-18T05:26:19.368Z,93676.13
2022-08-18T05:27:16.046Z,93676.81
2022-08-18T05:28:14.371Z,93675.66
2022-08-18T05:29:18.980Z,93667.34
2022-08-18T05:30:16.858Z,93675.66
2022-08-18T05:31:20.180Z,93677.91
2022-08-18T05:32:46.310Z,93678.66
2022-08-18T05:33:34.779Z,93663.09
2022-08-18T05:34:31.419Z,93680.25
2022-08-18T05:35:36.522Z,93682.13
2022-08-18T05:37:07.395Z,93681.28
2022-08-18T05:38:25.606Z,93682.28
2022-08-18T05:39:38.128Z,93680.53
2022-08-18T05:40:35.084Z,93681.38
2022-08-18T05:41:37.380Z,93683.69
2022-08-18T05:42:39.304Z,93686.75
2022-08-18T05:43:40.705Z,93689.97
2022-08-18T05:44:50.903Z,93683.34
2022-08-18T05:45:49.954Z,93691.44
2022-08-18T05:46:52.574Z,93694.16
2022-08-18T05:47:49.446Z,93688.56
2022-08-18T05:48:46.137Z,93665.16
2022-08-18T05:49:45.342Z,93687.72
2022-08-18T05:50:42.404Z,93683.16
2022-08-18T05:51:52.322Z,93690.56
2022-08-18T05:53:14.839Z,93679.81
2022-08-18T05:54:31.667Z,93690.50
2022-08-18T05:55:56.605Z,93678.78
2022-08-18T05:56:59.287Z,93666.50
2022-08-18T05:58:11.891Z,93669.25
2022-08-18T05:59:10.518Z,93686.09
2022-08-18T06:00:10.909Z,93680.09
2022-08-18T06:01:17.168Z,93677.50
2022-08-18T06:02:57.312Z,93680.50
2022-08-18T06:04:05.246Z,93678.13
2022-08-18T06:05:13.201Z,93660.00
2022-08-18T06:06:17.647Z,93657.50
2022-08-18T06:07:18.812Z,93674.31
2022-08-18T06:08:18.591Z,93684.16
2022-08-18T06:09:23.996Z,93680.47
2022-08-18T06:10:21.027Z,93678.47
2022-08-18T06:11:22.541Z,93682.75
2022-08-18T06:12:25.629Z,93687.34
2022-08-18T06:13:22.488Z,93681.34
2022-08-18T06:14:20.295Z,93683.56
2022-08-18T06:15:44.968Z,93679.06
2022-08-18T06:17:03.268Z,93606.34
2022-08-18T06:18:18.138Z,93684.78
2022-08-18T06:19:37.380Z,93676.94
2022-08-18T06:21:07.464Z,93681.53
2022-08-18T06:22:22.480Z,93679.06
2022-08-18T06:23:33.689Z,93681.38
2022-08-18T06:24:50.937Z,93681.56
2022-08-18T06:26:24.974Z,93673.34
2022-08-18T06:27:31.218Z,93678.28
2022-08-18T06:28:38.723Z,93680.69
2022-08-18T06:30:04.885Z,93683.94
2022-08-18T06:31:18.929Z,93655.84
2022-08-18T06:32:22.257Z,93680.56
2022-08-18T06:34:02.298Z,93674.63
2022-08-18T06:35:08.302Z,93682.25
2022-08-18T06:36:19.497Z,93675.81
2022-08-18T06:37:30.632Z,93651.84
2022-08-18T06:39:00.501Z,93680.97
2022-08-18T06:39:57.363Z,93684.84
2022-08-18T06:41:07.861Z,93683.59
2022-08-18T06:42:06.011Z,93676.31
2022-08-18T06:43:03.052Z,93679.06
2022-08-18T06:44:01.005Z,93686.81
2022-08-18T06:45:06.838Z,93684.75
2022-08-18T06:46:09.211Z,93677.25
2022-08-18T06:47:20.987Z,93684.44
2022-08-18T06:48:20.620Z,93680.41
2022-08-18T06:49:51.231Z,93683.28
2022-08-18T06:50:57.694Z,93676.56
2022-08-18T06:51:54.425Z,93666.44
2022-08-18T06:52:52.752Z,93676.16
2022-08-18T06:54:15.772Z,93680.56
2022-08-18T06:55:18.269Z,93674.75
2022-08-18T06:56:41.233Z,93672.00
2022-08-18T06:57:52.493Z,93672.94
2022-08-18T06:58:53.364Z,93673.56
2022-08-18T07:00:08.508Z,93664.78
2022-08-18T07:01:08.246Z,93677.88
2022-08-18T07:02:25.798Z,93661.88
2022-08-18T07:03:41.152Z,93675.03
2022-08-18T07:04:40.016Z,93671.28
2022-08-18T07:05:37.444Z,93667.78
2022-08-18T07:06:35.348Z,93664.28
2022-08-18T07:07:40.057Z,93670.69
2022-08-18T07:08:41.695Z,93665.47
2022-08-18T07:09:38.357Z,93655.16
2022-08-18T07:10:45.240Z,93662.34
2022-08-18T07:11:58.967Z,93657.41
2022-08-18T07:13:19.723Z,93664.91
2022-08-18T07:14:25.754Z,93653.63
2022-08-18T07:15:25.902Z,93649.72
2022-08-18T07:16:56.511Z,93662.47
2022-08-18T07:17:49.588Z,93661.91
2022-08-18T07:18:47.006Z,93663.22
2022-08-18T07:19:43.833Z,93658.38
2022-08-18T07:20:48.040Z,93660.63
2022-08-18T07:21:44.992Z,93661.19
2022-08-18T07:22:56.761Z,93656.59
2022-08-18T07:24:23.607Z,93654.38
2022-08-18T07:25:28.275Z,93648.97
2022-08-18T07:26:24.972Z,93646.78
2022-08-18T07:27:23.007Z,93647.56
2022-08-18T07:28:42.025Z,93648.25
2022-08-18T07:30:00.947Z,93652.84
2022-08-18T07:31:16.848Z,93648.66
2022-08-18T07:32:21.072Z,93644.03
2022-08-18T07:33:25.012Z,93647.28
2022-08-18T07:34:37.554Z,93649.41
2022-08-18T07:35:40.601Z,93649.38
2022-08-18T07:36:43.824Z,93652.31
2022-08-18T07:37:53.622Z,93656.97
2022-08-18T07:39:00.660Z,93636.91
2022-08-18T07:40:26.086Z,93648.16
2022-08-18T07:41:34.501Z,93655.03
2022-08-18T07:42:37.125Z,93654.91
2022-08-18T07:43:53.540Z,93655.66
2022-08-18T07:44:51.183Z,93653.75
2022-08-18T07:45:48.276Z,93654.91
2022-08-18T07:47:04.427Z,93656.91
2022-08-18T07:48:36.948Z,93645.91
2022-08-18T07:49:36.625Z,93623.13
2022-08-18T07:51:02.279Z,93650.50
2022-08-18T07:52:36.287Z,93646.44
2022-08-18T07:53:56.889Z,93606.03
2022-08-18T07:55:10.912Z,93648.03
2022-08-18T07:56:34.197Z,93643.28
2022-08-18T07:57:48.910Z,93645.13
2022-08-18T07:58:56.461Z,93645.81
2022-08-18T07:59:57.546Z,93635.97
2022-08-18T08:01:24.668Z,93643.75
2022-08-18T08:02:27.050Z,93650.03
2022-08-18T08:03:51.759Z,93640.19
2022-08-18T08:05:11.114Z,93647.00
2022-08-18T08:06:24.954Z,93654.97
2022-08-18T08:07:26.271Z,93649.00
2022-08-18T08:08:25.840Z,93641.50
2022-08-18T08:09:37.875Z,93653.13
2022-08-18T08:10:51.614Z,93647.63
2022-08-18T08:11:59.179Z,93650.41
2022-08-18T08:13:43.895Z,93648.16
2022-08-18T08:14:48.052Z,93649.00
2022-08-18T08:15:52.287Z,93644.59
2022-08-18T08:16:59.040Z,93646.56
2022-08-18T08:17:55.727Z,93651.25
2022-08-18T08:18:52.456Z,93651.53
2022-08-18T08:20:16.953Z,93655.06
2022-08-18T08:21:20.064Z,93646.84
2022-08-18T08:22:28.874Z,93638.03
2022-08-18T08:23:35.828Z,93644.09
2022-08-18T08:25:01.811Z,93605.78
2022-08-18T08:26:26.903Z,93642.69
2022-08-18T08:28:00.934Z,93639.41
2022-08-18T08:29:19.574Z,93628.94
2022-08-18T08:30:23.855Z,93641.84
2022-08-18T08:31:38.220Z,93624.50
2022-08-18T08:32:44.681Z,93641.50
2022-08-18T08:33:50.927Z,93639.81
2022-08-18T08:35:07.012Z,93637.63
2022-08-18T08:36:09.656Z,93639.97
2022-08-18T08:37:20.293Z,93634.84
2022-08-18T08:38:42.493Z,93633.13
2022-08-18T08:39:55.998Z,93630.44
2022-08-18T08:41:16.166Z,93631.09
2022-08-18T08:42:34.476Z,93633.84
2022-08-18T08:43:40.087Z,93632.34
2022-08-18T08:45:01.018Z,93625.63
2022-08-18T08:46:09.140Z,93631.66
2022-08-18T08:47:22.953Z,93637.31
2022-08-18T08:48:27.492Z,93632.81
2022-08-18T08:49:42.838Z,93631.25
2022-08-18T08:50:50.007Z,93621.69
2022-08-18T08:51:56.854Z,93630.34
2022-08-18T08:53:10.774Z,93628.47
2022-08-18T08:54:23.445Z,93621.72
2022-08-18T08:55:28.462Z,93622.78
2022-08-18T08:56:30.980Z,93627.47
2022-08-18T08:57:33.786Z,93621.47
2022-08-18T08:58:59.453Z,93630.59
2022-08-18T08:59:57.990Z,93627.16
2022-08-18T09:00:56.152Z,93630.91
2022-08-18T09:02:27.014Z,93617.97
2022-08-18T09:03:40.130Z,93632.72
2022-08-18T09:05:09.603Z,93635.28
2022-08-18T09:06:27.741Z,93628.88
2022-08-18T09:07:30.314Z,93626.31
2022-08-18T09:09:12.573Z,93629.47
2022-08-18T09:10:31.124Z,93620.81
2022-08-18T09:11:46.370Z,93626.41
2022-08-18T09:13:28.879Z,93622.72
2022-08-18T09:14:44.418Z,93622.72
2022-08-18T09:16:15.446Z,93586.88
2022-08-18T09:17:50.884Z,93617.88
2022-08-18T09:18:59.331Z,93612.28
2022-08-18T09:20:26.590Z,93604.22
2022-08-18T09:21:29.079Z,93604.38
2022-08-18T09:22:43.966Z,93602.97
2022-08-18T09:23:45.833Z,93606.44
2022-08-18T09:24:48.389Z,93605.81
2022-08-18T09:25:52.232Z,93613.94
2022-08-18T09:27:03.876Z,93605.81
2022-08-18T09:28:14.044Z,93589.31
2022-08-18T09:29:23.618Z,93601.00
2022-08-18T09:30:39.084Z,93608.22
2022-08-18T09:31:36.563Z,93614.66
2022-08-18T09:33:18.519Z,93606.63
2022-08-18T09:35:01.095Z,93607.81
2022-08-18T09:36:20.354Z,93601.53
2022-08-18T09:37:24.462Z,93599.25
2022-08-18T09:38:47.512Z,93588.00
2022-08-18T09:40:18.372Z,93591.47
2022-08-18T09:41:33.163Z,93586.63
2022-08-18T09:42:48.560Z,93587.72
2022-08-18T09:44:21.747Z,93581.25
2022-08-18T09:45:34.266Z,93581.53
2022-08-18T09:46:43.627Z,93589.38
2022-08-18T09:47:43.612Z,93581.59
2022-08-18T09:48:45.340Z,93579.28
2022-08-18T09:51:39.969Z,93578.59
2022-08-18T09:52:37.805Z,93581.56
2022-08-18T09:53:54.632Z,93571.25
2022-08-18T09:54:58.827Z,93573.38
2022-08-18T09:56:01.359Z,93573.50
2022-08-18T09:57:19.593Z,93580.69
2022-08-18T09:58:26.835Z,93574.38
2022-08-18T09:59:34.140Z,93578.78
2022-08-18T10:00:33.492Z,93573.72
2022-08-18T10:01:31.796Z,93573.16
2022-08-18T10:02:29.101Z,93569.38
2022-08-18T10:03:31.272Z,93568.38
2022-08-18T10:04:33.651Z,93563.38
2022-08-18T10:05:31.367Z,93579.72
2022-08-18T10:06:28.071Z,93559.81
2022-08-18T10:07:41.707Z,93551.88
2022-08-18T10:08:42.784Z,93553.38
2022-08-18T10:09:48.716Z,93559.16
2022-08-18T10:12:27.660Z,93549.41
2022-08-18T10:13:58.932Z,93540.50
2022-08-18T10:15:27.203Z,93538.88
2022-08-18T10:17:24.730Z,93551.38
2022-08-18T10:18:34.194Z,93560.22
2022-08-18T10:19:49.727Z,93556.09
2022-08-18T10:21:00.862Z,93564.50
2022-08-18T10:22:00.721Z,93543.16
2022-08-18T10:22:57.906Z,93544.56
2022-08-18T10:24:32.063Z,93542.84
2022-08-18T10:25:34.702Z,93546.59
2022-08-18T10:26:31.436Z,93545.81
2022-08-18T10:27:49.082Z,93542.41
2022-08-18T10:29:02.739Z,93539.78
2022-08-18T10:30:00.630Z,93546.59
2022-08-18T10:31:09.699Z,93540.38
2022-08-18T10:32:08.364Z,93539.25
2022-08-18T10:33:17.709Z,93547.16
2022-08-18T10:36:02.295Z,93540.31
2022-08-18T10:37:17.009Z,93543.66
2022-08-18T10:38:22.972Z,93516.72
2022-08-18T10:39:30.957Z,93534.78
2022-08-18T10:40:37.936Z,93538.09
2022-08-18T10:41:38.067Z,93543.03
2022-08-18T10:42:42.662Z,93534.72
2022-08-18T10:43:55.718Z,93533.25
2022-08-18T10:45:07.002Z,93533.47
2022-08-18T10:46:25.144Z,93529.50
2022-08-18T10:47:33.349Z,93530.19
2022-08-18T10:48:34.402Z,93533.31
2022-08-18T10:49:33.298Z,93529.56
2022-08-18T10:50:36.016Z,93532.34
2022-08-18T10:51:59.118Z,93529.72
2022-08-18T10:54:51.760Z,93524.94
2022-08-18T10:56:30.498Z,93539.78
2022-08-18T10:57:42.145Z,93533.09
2022-08-18T10:58:53.200Z,93536.38
2022-08-18T10:59:58.295Z,93529.50
2022-08-18T11:01:20.289Z,93528.59
2022-08-18T11:02:30.113Z,93521.78
2022-08-18T11:03:52.136Z,93522.44
2022-08-18T11:04:59.334Z,93510.97
2022-08-18T11:06:18.210Z,93503.75
2022-08-18T11:07:23.210Z,93518.97
2022-08-18T11:08:20.818Z,93521.44
2022-08-18T11:09:28.223Z,93527.03
2022-08-18T11:11:06.611Z,93515.81
2022-08-18T11:12:06.044Z,93515.91
2022-08-18T11:13:10.197Z,93515.16
2022-08-18T11:14:36.519Z,93515.50
2022-08-18T11:15:38.970Z,93512.69
2022-08-18T11:16:35.694Z,93508.78
2022-08-18T11:17:44.859Z,93505.22
2022-08-18T11:18:43.893Z,93498.34
2022-08-18T11:19:43.346Z,93516.91
2022-08-18T11:20:43.191Z,93500.56
2022-08-18T11:23:14.445Z,93498.91
2022-08-18T11:24:18.510Z,93514.59
2022-08-18T11:25:42.774Z,93512.19
2022-08-18T11:26:45.759Z,93518.91
2022-08-18T11:28:03.259Z,93517.16
2022-08-18T11:28:59.972Z,93512.31
2022-08-18T11:30:01.410Z,93513.03
2022-08-18T11:30:59.507Z,93514.78
2022-08-18T11:32:11.933Z,93516.00
2022-08-18T11:33:15.893Z,93490.16
2022-08-18T11:34:29.246Z,93485.84
2022-08-18T11:35:44.407Z,93514.03
2022-08-18T11:36:49.970Z,93505.00
2022-08-18T11:39:10.728Z,93505.97
2022-08-18T11:41:10.699Z,93508.34
2022-08-18T11:41:50.245Z,93498.97
2022-08-18T11:43:06.299Z,93505.16
2022-08-18T11:44:05.732Z,93497.78
2022-08-18T11:45:23.374Z,93500.47
2022-08-18T11:46:31.989Z,93504.63
2022-08-18T11:47:30.159Z,93497.00
2022-08-18T11:48:35.951Z,93501.88
2022-08-18T11:49:54.898Z,93503.28
2022-08-18T11:50:55.200Z,93495.59
2022-08-18T11:52:03.635Z,93502.31
2022-08-18T11:53:15.418Z,93485.22
2022-08-18T11:54:15.529Z,93485.66
2022-08-18T11:55:33.162Z,93466.81
2022-08-18T11:57:58.722Z,93484.09
2022-08-18T11:59:52.581Z,93481.66
2022-08-18T12:00:45.895Z,93488.72
2022-08-18T12:01:51.311Z,93481.44
2022-08-18T12:02:48.515Z,93496.66
2022-08-18T12:03:49.190Z,93486.38
2022-08-18T12:04:53.032Z,93491.41
2022-08-18T12:05:56.214Z,93485.75
2022-08-18T12:06:59.712Z,93489.06
2022-08-18T12:09:36.957Z,93487.88
2022-08-18T12:10:36.839Z,93486.28
2022-08-18T12:11:41.208Z,93480.72
2022-08-18T12:14:31.467Z,93480.94
2022-08-18T12:15:43.418Z,93469.53
2022-08-18T12:16:46.573Z,93471.56
2022-08-18T12:19:07.689Z,93467.25
2022-08-18T12:20:11.942Z,93457.19
2022-08-18T12:21:10.242Z,93469.44
2022-08-18T12:22:16.131Z,93470.56
2022-08-18T12:23:14.185Z,93474.38
2022-08-18T12:24:21.015Z,93466.22
2022-08-18T12:25:25.046Z,93469.53
2022-08-18T12:27:39.592Z,93465.69
2022-08-18T12:28:36.672Z,93462.16
2022-08-18T12:29:43.343Z,93463.47
2022-08-18T12:30:42.051Z,93461.50
2022-08-18T12:31:42.226Z,93464.81
2022-08-18T12:32:49.951Z,93471.97
2022-08-18T12:34:00.821Z,93473.84
2022-08-18T12:35:02.059Z,93465.50
2022-08-18T12:36:05.421Z,93462.56
2022-08-18T12:37:10.329Z,93465.38
2022-08-18T12:38:20.250Z,93455.00
2022-08-18T12:39:18.135Z,93455.00
2022-08-18T12:40:17.161Z,93456.56
2022-08-18T12:42:32.406Z,93452.91
2022-08-18T12:43:32.089Z,93452.47
2022-08-18T12:44:29.057Z,93453.19
2022-08-18T12:45:28.214Z,93450.03
2022-08-18T12:46:25.794Z,93451.00
2022-08-18T12:47:25.666Z,93458.75
2022-08-18T12:48:30.470Z,93427.41
2022-08-18T12:49:27.202Z,93450.81
2022-08-18T12:50:30.763Z,93455.09
2022-08-18T12:51:30.753Z,93463.09
2022-08-18T12:52:27.954Z,93461.72
2022-08-18T12:53:29.547Z,93461.53
2022-08-18T12:54:55.750Z,93453.78
2022-08-18T12:55:52.901Z,93445.81
2022-08-18T12:56:54.087Z,93448.16
2022-08-18T12:59:09.967Z,93443.59
2022-08-18T13:00:09.216Z,93442.41
2022-08-18T13:01:12.260Z,93447.78
2022-08-18T13:02:10.711Z,93448.84